Time;durP1;ratioP1;P1;durP2;ratioP2;P2;SDS_P1;SDS_P2;PMS_P1;PMS_P2;Temp;Humidity;BMP_temperature;BMP_pressure;BME280_temperature;BME280_humidity;BME280_pressure;Samples;Min_cycle;Max_cycle;Signal;HPM_P1;HPM_P2
2022/05/27 00:00:53;;;;;;;0.90;0.90;;;19.80;58.60;;;;;;5050970;28;20243;-72
2022/05/27 00:03:19;;;;;;;0.90;0.90;;;19.80;58.60;;;;;;5052222;28;20230;-72
2022/05/27 00:05:47;;;;;;;1.92;1.30;;;19.80;58.60;;;;;;5052001;28;20164;-72
2022/05/27 00:08:13;;;;;;;2.10;1.17;;;19.80;58.60;;;;;;5050341;28;20202;-73
2022/05/27 00:10:38;;;;;;;2.00;1.05;;;19.80;58.60;;;;;;5051849;28;20179;-74
2022/05/27 00:13:04;;;;;;;1.90;0.95;;;19.70;58.50;;;;;;5052029;28;20171;-73
2022/05/27 00:15:30;;;;;;;1.15;0.95;;;19.80;58.60;;;;;;5051196;28;20194;-74
2022/05/27 00:17:55;;;;;;;2.42;1.10;;;19.70;58.50;;;;;;5051610;28;20630;-73
2022/05/27 00:20:21;;;;;;;2.33;1.00;;;19.80;58.70;;;;;;5051450;28;20178;-73
2022/05/27 00:22:46;;;;;;;1.05;0.70;;;19.80;58.70;;;;;;5050928;28;20206;-73
2022/05/27 00:25:12;;;;;;;2.15;1.40;;;19.70;58.60;;;;;;5051911;28;20170;-73
2022/05/27 00:27:38;;;;;;;2.47;1.10;;;19.70;58.60;;;;;;5051498;28;20199;-74
2022/05/27 00:30:04;;;;;;;1.33;0.90;;;19.70;58.60;;;;;;5051097;28;20528;-73
2022/05/27 00:32:30;;;;;;;1.60;1.30;;;19.70;58.60;;;;;;5051985;28;20189;-72
2022/05/27 00:34:55;;;;;;;2.00;1.00;;;19.80;58.60;;;;;;5051506;28;20163;-72
2022/05/27 00:37:21;;;;;;;2.15;1.20;;;19.70;58.60;;;;;;5050936;28;20187;-72
2022/05/27 00:39:46;;;;;;;1.20;1.10;;;19.80;58.70;;;;;;5051455;28;20167;-73
2022/05/27 00:42:12;;;;;;;2.47;1.08;;;19.70;58.70;;;;;;5051525;28;20206;-72
2022/05/27 00:44:37;;;;;;;2.17;1.20;;;19.70;58.70;;;;;;5050590;28;20185;-73
2022/05/27 00:47:11;;;;;;;1.02;0.85;;;19.70;58.80;;;;;;5051817;28;20171;-73
2022/05/27 00:49:51;;;;;;;4.20;1.45;;;19.80;58.90;;;;;;5051639;28;20256;-74
2022/05/27 00:52:18;;;;;;;1.85;1.20;;;19.70;58.80;;;;;;5050584;28;20183;-73
2022/05/27 00:54:44;;;;;;;2.42;1.30;;;19.70;58.80;;;;;;5050105;28;20199;-74
2022/05/27 00:57:15;;;;;;;1.05;0.88;;;19.70;58.90;;;;;;5049526;28;20178;-73
2022/05/27 00:59:48;;;;;;;1.52;1.10;;;19.70;59.00;;;;;;5051103;28;20693;-72
2022/05/27 01:02:14;;;;;;;2.90;1.10;;;19.70;59.00;;;;;;5050432;28;20219;-72
2022/05/27 01:04:39;;;;;;;1.00;0.90;;;19.70;58.90;;;;;;5050540;28;20179;-71
2022/05/27 01:07:05;;;;;;;1.58;1.02;;;19.70;59.00;;;;;;5050345;28;20533;-72
2022/05/27 01:09:32;;;;;;;2.47;1.05;;;19.70;59.10;;;;;;5051409;28;20179;-72
2022/05/27 01:12:15;;;;;;;1.20;1.10;;;19.70;59.10;;;;;;5049080;28;20214;-74
2022/05/27 01:15:02;;;;;;;2.55;1.10;;;19.70;59.00;;;;;;5051197;28;20224;-73
2022/05/27 01:17:53;;;;;;;3.95;1.05;;;19.70;59.00;;;;;;5050398;28;20241;-73
2022/05/27 01:20:38;;;;;;;1.35;1.17;;;19.70;59.00;;;;;;5050093;28;20211;-73
2022/05/27 01:23:12;;;;;;;1.58;1.20;;;19.70;59.10;;;;;;5051392;28;20301;-74
2022/05/27 01:25:54;;;;;;;2.50;1.10;;;19.70;59.00;;;;;;5050417;28;20182;-74
2022/05/27 01:28:34;;;;;;;1.27;0.98;;;19.70;59.00;;;;;;5049995;28;20186;-73
2022/05/27 01:31:10;;;;;;;1.77;1.10;;;19.70;59.10;;;;;;5050031;28;20182;-72
2022/05/27 01:33:59;;;;;;;1.17;0.90;;;19.60;59.00;;;;;;5052720;28;20253;-72
2022/05/27 01:36:57;;;;;;;1.40;1.30;;;19.60;59.00;;;;;;5055011;28;20171;-72
2022/05/27 01:39:34;;;;;;;2.22;1.27;;;19.70;59.10;;;;;;5034466;28;20195;-72
2022/05/27 01:42:29;;;;;;;1.50;1.05;;;19.60;59.10;;;;;;5054867;28;20219;-73
2022/05/27 01:45:11;;;;;;;1.65;0.98;;;19.60;59.10;;;;;;5052754;28;20610;-72
2022/05/27 01:47:49;;;;;;;2.78;1.15;;;19.60;59.10;;;;;;5052785;28;20179;-73
2022/05/27 01:50:34;;;;;;;1.75;0.90;;;19.60;59.10;;;;;;5053659;28;20186;-74
2022/05/27 01:53:28;;;;;;;1.67;0.85;;;19.60;59.10;;;;;;5053204;28;20771;-74
2022/05/27 01:56:23;;;;;;;1.25;0.95;;;19.60;59.10;;;;;;5053198;28;20598;-74
2022/05/27 01:59:07;;;;;;;1.40;1.20;;;19.60;59.10;;;;;;5053368;28;20191;-72
2022/05/27 02:01:54;;;;;;;1.60;1.23;;;19.60;59.10;;;;;;5052181;28;20231;-72
2022/05/27 02:04:36;;;;;;;1.58;0.80;;;19.60;59.10;;;;;;5053374;28;20542;-72
2022/05/27 02:07:15;;;;;;;1.33;1.02;;;19.60;59.20;;;;;;5053260;28;20319;-72
2022/05/27 02:09:45;;;;;;;1.13;1.00;;;19.60;59.20;;;;;;5052817;28;20185;-73
2022/05/27 02:12:26;;;;;;;2.78;1.30;;;19.60;59.20;;;;;;5052885;28;20175;-73
2022/05/27 02:15:12;;;;;;;1.10;0.93;;;19.60;59.20;;;;;;5052047;28;20179;-73
2022/05/27 02:17:49;;;;;;;1.27;1.02;;;19.60;59.20;;;;;;5052668;28;20179;-74
2022/05/27 02:20:17;;;;;;;3.08;1.42;;;19.60;59.10;;;;;;5054133;28;20232;-73
2022/05/27 02:22:51;;;;;;;1.42;0.90;;;19.60;59.20;;;;;;5050869;28;20238;-74
2022/05/27 02:25:30;;;;;;;1.63;1.08;;;19.60;59.10;;;;;;5051834;28;20254;-74
2022/05/27 02:28:01;;;;;;;0.93;0.80;;;19.60;59.20;;;;;;5052736;28;20240;-74
2022/05/27 02:30:29;;;;;;;1.15;1.05;;;19.60;59.20;;;;;;5052428;28;20266;-73
2022/05/27 02:35:45;;;;;;;1.05;0.88;;;19.60;59.20;;;;;;5050731;28;20320;-72
2022/05/27 02:38:10;;;;;;;0.90;0.90;;;19.60;59.20;;;;;;5051754;28;20258;-72
2022/05/27 02:40:42;;;;;;;1.15;0.90;;;19.60;59.20;;;;;;5051203;28;20645;-73
2022/05/27 02:43:25;;;;;;;1.25;0.85;;;19.60;59.20;;;;;;5050037;28;20240;-73
2022/05/27 02:46:22;;;;;;;0.80;0.80;;;19.60;59.20;;;;;;5051473;28;20156;-73
2022/05/27 02:49:00;;;;;;;1.80;1.20;;;19.60;59.20;;;;;;5051013;28;20183;-74
2022/05/27 02:51:55;;;;;;;1.10;0.93;;;19.60;59.20;;;;;;5050732;28;20197;-74
2022/05/27 02:54:32;;;;;;;0.98;0.80;;;19.60;59.20;;;;;;5051495;28;20199;-73
2022/05/27 02:57:17;;;;;;;1.65;1.08;;;19.60;59.20;;;;;;5050169;28;20179;-73
2022/05/27 02:59:42;;;;;;;1.10;0.88;;;19.60;59.20;;;;;;5050563;28;20230;-72
2022/05/27 03:02:13;;;;;;;1.98;0.93;;;19.60;59.20;;;;;;5050804;28;20214;-72
2022/05/27 03:04:43;;;;;;;2.50;1.05;;;19.60;59.20;;;;;;5051387;28;20225;-72
2022/05/27 03:07:40;;;;;;;2.03;1.33;;;19.50;59.20;;;;;;5052426;28;20209;-72
2022/05/27 03:10:08;;;;;;;1.70;1.30;;;19.50;59.20;;;;;;5050893;28;20197;-73
2022/05/27 03:12:44;;;;;;;0.98;0.98;;;19.60;59.20;;;;;;5051466;28;20241;-73
2022/05/27 03:15:19;;;;;;;1.38;0.93;;;19.50;59.20;;;;;;5050957;28;20178;-73
2022/05/27 03:17:48;;;;;;;1.10;1.00;;;19.50;59.20;;;;;;5049859;28;20547;-74
2022/05/27 03:20:18;;;;;;;1.23;1.00;;;19.50;59.20;;;;;;5050958;28;20523;-73
2022/05/27 03:22:49;;;;;;;1.40;0.90;;;19.50;59.20;;;;;;5050334;28;20251;-74
2022/05/27 03:25:20;;;;;;;1.13;1.00;;;19.50;59.20;;;;;;5049854;28;20190;-73
2022/05/27 03:28:16;;;;;;;1.55;1.00;;;19.50;59.20;;;;;;5051689;28;20175;-73
2022/05/27 03:30:47;;;;;;;1.17;0.98;;;19.50;59.20;;;;;;5050310;28;20186;-72
2022/05/27 03:33:29;;;;;;;0.98;0.90;;;19.50;59.20;;;;;;5051121;28;20619;-72
2022/05/27 03:36:02;;;;;;;1.70;1.20;;;19.50;59.20;;;;;;5050477;28;20183;-72
2022/05/27 03:38:44;;;;;;;1.40;1.00;;;19.50;59.20;;;;;;5051976;28;20215;-71
2022/05/27 03:41:26;;;;;;;1.90;1.10;;;19.50;59.90;;;;;;5050248;28;20591;-72
2022/05/27 03:43:51;;;;;;;2.05;1.00;;;19.50;59.20;;;;;;5049971;28;20201;-73
2022/05/27 03:46:37;;;;;;;1.33;1.08;;;19.50;59.20;;;;;;5050019;28;20167;-72
2022/05/27 03:49:03;;;;;;;1.27;1.10;;;19.50;59.20;;;;;;5051759;28;20314;-74
2022/05/27 03:51:54;;;;;;;1.77;1.10;;;19.50;59.20;;;;;;5051502;28;20179;-74
2022/05/27 03:54:21;;;;;;;1.08;0.80;;;19.50;59.30;;;;;;5049356;28;20184;-73
2022/05/27 03:56:46;;;;;;;1.10;1.00;;;19.50;59.20;;;;;;5050370;28;20195;-74
2022/05/27 03:59:12;;;;;;;2.53;0.98;;;19.50;59.90;;;;;;5051709;28;20248;-71
2022/05/27 04:01:39;;;;;;;1.75;1.17;;;19.50;59.20;;;;;;5050674;28;20213;-71
2022/05/27 04:04:06;;;;;;;1.17;0.90;;;19.50;59.20;;;;;;5051378;28;20185;-72
2022/05/27 04:06:32;;;;;;;1.15;1.05;;;19.50;59.20;;;;;;5051637;28;20252;-71
2022/05/27 04:08:57;;;;;;;1.25;1.02;;;19.50;59.20;;;;;;5050416;28;20212;-72
2022/05/27 04:11:23;;;;;;;1.10;0.95;;;19.50;59.20;;;;;;5051320;28;20237;-72
2022/05/27 04:13:49;;;;;;;2.67;1.27;;;19.50;59.20;;;;;;5050434;28;20203;-73
2022/05/27 04:16:14;;;;;;;1.45;1.20;;;19.50;59.20;;;;;;5051522;28;20198;-72
2022/05/27 04:18:40;;;;;;;1.08;1.00;;;19.50;59.10;;;;;;5051041;28;20578;-73
2022/05/27 04:21:05;;;;;;;1.70;0.98;;;19.50;59.20;;;;;;5050554;28;20475;-73
2022/05/27 04:23:31;;;;;;;1.23;1.00;;;19.50;59.20;;;;;;5050840;28;20260;-73
2022/05/27 04:25:56;;;;;;;1.55;1.20;;;19.50;59.20;;;;;;5051280;28;20228;-73
2022/05/27 04:28:22;;;;;;;1.13;0.90;;;19.50;59.20;;;;;;5050572;28;20202;-73
2022/05/27 04:30:47;;;;;;;1.45;1.10;;;19.50;59.20;;;;;;5050744;28;20272;-72
2022/05/27 04:33:13;;;;;;;1.40;1.17;;;19.50;59.20;;;;;;5051125;28;20610;-72
2022/05/27 04:35:38;;;;;;;2.38;1.40;;;19.50;59.20;;;;;;5049800;28;20175;-71
2022/05/27 04:38:04;;;;;;;2.20;0.90;;;19.50;59.20;;;;;;5050812;28;20186;-72
2022/05/27 04:40:30;;;;;;;1.52;1.17;;;19.50;59.10;;;;;;5051153;28;20193;-71
2022/05/27 04:42:55;;;;;;;1.42;1.20;;;19.60;59.20;;;;;;5049676;28;20221;-72
2022/05/27 04:45:21;;;;;;;1.38;1.25;;;19.60;59.10;;;;;;5050707;28;20296;-72
2022/05/27 04:47:47;;;;;;;0.95;0.90;;;19.60;59.40;;;;;;5050660;28;20186;-73
2022/05/27 04:50:12;;;;;;;1.50;0.90;;;19.60;59.20;;;;;;5050118;28;20167;-73
2022/05/27 04:52:38;;;;;;;1.98;1.10;;;19.50;59.10;;;;;;5050304;28;20178;-74
2022/05/27 04:55:07;;;;;;;1.65;1.10;;;19.50;59.10;;;;;;5050763;28;20179;-73
2022/05/27 04:57:50;;;;;;;2.60;1.20;;;19.60;59.20;;;;;;5050040;28;20210;-72
2022/05/27 05:00:20;;;;;;;1.00;0.90;;;19.60;59.20;;;;;;5050553;28;20304;-72
2022/05/27 05:02:45;;;;;;;1.20;0.98;;;19.60;59.20;;;;;;5049164;28;20662;-71
2022/05/27 05:05:13;;;;;;;1.38;1.08;;;19.60;59.20;;;;;;5049866;28;20186;-71
2022/05/27 05:07:40;;;;;;;1.73;0.98;;;19.60;59.20;;;;;;5053489;28;20234;-72
2022/05/27 05:10:07;;;;;;;1.83;0.93;;;19.60;59.20;;;;;;5052924;28;20246;-72
2022/05/27 05:12:33;;;;;;;2.42;1.00;;;19.60;59.10;;;;;;5054369;28;20258;-73
2022/05/27 05:14:59;;;;;;;1.95;1.13;;;19.60;59.20;;;;;;5053994;28;20274;-72
2022/05/27 05:17:24;;;;;;;1.60;0.85;;;19.60;59.20;;;;;;5053665;28;20175;-73
2022/05/27 05:19:53;;;;;;;2.03;1.30;;;19.60;59.20;;;;;;5053826;28;20187;-73
2022/05/27 05:22:19;;;;;;;1.60;1.27;;;19.60;59.20;;;;;;5054227;28;20218;-73
2022/05/27 05:24:44;;;;;;;2.72;1.33;;;19.60;59.20;;;;;;5053333;28;20243;-73
2022/05/27 05:27:10;;;;;;;2.03;1.00;;;19.60;59.20;;;;;;5054446;28;20178;-73
2022/05/27 05:29:36;;;;;;;2.40;1.10;;;19.60;59.20;;;;;;5054069;28;20258;-72
2022/05/27 05:32:01;;;;;;;1.52;0.90;;;19.60;59.20;;;;;;5053529;28;20547;-72
2022/05/27 05:34:27;;;;;;;1.77;1.30;;;19.60;59.20;;;;;;5053894;28;20182;-70
2022/05/27 05:36:54;;;;;;;1.45;0.90;;;19.60;59.20;;;;;;5053617;28;20193;-69
2022/05/27 05:39:20;;;;;;;1.70;1.10;;;19.60;59.20;;;;;;5053679;28;20191;-71
2022/05/27 05:41:55;;;;;;;2.00;1.25;;;19.60;59.30;;;;;;5053527;28;20214;-72
2022/05/27 05:44:20;;;;;;;1.48;1.05;;;19.60;59.30;;;;;;5052811;28;20544;-71
2022/05/27 05:46:48;;;;;;;1.60;1.10;;;19.60;59.40;;;;;;5052899;28;20175;-72
2022/05/27 05:49:13;;;;;;;1.92;1.08;;;19.60;59.50;;;;;;5053835;28;20183;-73
2022/05/27 05:51:39;;;;;;;2.38;1.30;;;19.60;59.40;;;;;;5053547;28;20168;-74
2022/05/27 05:54:04;;;;;;;1.55;1.10;;;19.60;59.50;;;;;;5053052;28;20182;-73
2022/05/27 05:56:31;;;;;;;1.50;1.10;;;19.60;59.50;;;;;;5053565;28;20182;-72
2022/05/27 05:58:57;;;;;;;2.22;1.25;;;19.60;59.50;;;;;;5053297;28;20183;-71
2022/05/27 06:01:22;;;;;;;1.95;1.20;;;19.60;59.50;;;;;;5052562;28;20254;-71
2022/05/27 06:03:48;;;;;;;2.42;1.08;;;19.60;59.40;;;;;;5053470;28;20179;-71
2022/05/27 06:06:13;;;;;;;3.30;1.55;;;19.60;59.50;;;;;;5053522;28;20167;-70
2022/05/27 06:08:39;;;;;;;1.90;1.25;;;19.70;59.50;;;;;;5052486;28;20561;-71
2022/05/27 06:11:07;;;;;;;3.20;1.30;;;19.60;59.50;;;;;;5053431;28;20179;-72
2022/05/27 06:13:32;;;;;;;2.58;1.52;;;19.70;59.50;;;;;;5052445;28;20730;-73
2022/05/27 06:15:58;;;;;;;1.85;1.17;;;19.70;59.50;;;;;;5052786;28;20191;-72
2022/05/27 06:18:23;;;;;;;1.17;1.00;;;19.70;59.40;;;;;;5052261;28;20171;-73
2022/05/27 06:20:49;;;;;;;3.40;1.27;;;19.70;59.40;;;;;;5051827;28;20237;-73
2022/05/27 06:23:14;;;;;;;1.90;1.00;;;19.70;59.40;;;;;;5052885;28;20243;-70
2022/05/27 06:25:40;;;;;;;2.63;1.30;;;19.80;59.40;;;;;;5052789;28;20225;-72
2022/05/27 06:36:18;;;;;;;1.70;1.17;;;19.80;59.30;;;;;;5052159;28;20217;-74
2022/05/27 06:38:43;;;;;;;3.17;1.73;;;19.80;59.30;;;;;;5051400;28;20179;-74
2022/05/27 06:41:08;;;;;;;1.63;1.10;;;19.80;59.50;;;;;;5051681;28;20179;-73
2022/05/27 06:43:34;;;;;;;3.25;1.38;;;19.80;59.40;;;;;;5051710;28;20214;-73
2022/05/27 06:46:00;;;;;;;2.88;1.35;;;19.80;59.40;;;;;;5052586;28;20229;-73
2022/05/27 06:48:28;;;;;;;2.30;1.33;;;19.80;59.40;;;;;;5052951;28;20187;-73
2022/05/27 06:50:54;;;;;;;2.42;1.08;;;19.80;59.40;;;;;;5052977;28;20171;-73
2022/05/27 06:53:19;;;;;;;1.58;1.17;;;19.80;59.50;;;;;;5053027;28;20190;-72
2022/05/27 06:55:48;;;;;;;2.58;1.20;;;19.80;59.60;;;;;;5051818;28;20171;-72
2022/05/27 06:58:14;;;;;;;6.03;1.50;;;19.80;59.60;;;;;;5052479;28;20259;-73
2022/05/27 07:00:39;;;;;;;6.05;1.25;;;19.80;59.70;;;;;;5052526;28;20634;-75
2022/05/27 07:03:07;;;;;;;2.42;1.25;;;19.80;59.70;;;;;;5052100;28;20305;-69
2022/05/27 07:05:32;;;;;;;4.80;1.38;;;19.80;59.90;;;;;;5052567;28;20249;-71
2022/05/27 07:07:58;;;;;;;3.53;1.20;;;19.90;59.80;;;;;;5052191;28;20218;-71
2022/05/27 07:10:23;;;;;;;3.28;1.45;;;19.90;59.60;;;;;;5051995;28;20183;-72
2022/05/27 07:12:49;;;;;;;4.72;1.45;;;19.90;59.50;;;;;;5052143;28;20175;-73
2022/05/27 07:15:16;;;;;;;5.38;1.35;;;19.90;59.60;;;;;;5052606;28;20186;-73
2022/05/27 07:17:41;;;;;;;1.88;1.35;;;20.00;59.60;;;;;;5051879;28;20529;-73
2022/05/27 07:20:08;;;;;;;1.58;1.15;;;20.00;59.50;;;;;;5052266;28;20626;-73
2022/05/27 07:22:33;;;;;;;2.30;1.20;;;20.00;59.50;;;;;;5052087;28;20226;-74
2022/05/27 07:24:59;;;;;;;1.63;1.20;;;20.00;59.40;;;;;;5051023;28;20179;-72
2022/05/27 07:27:24;;;;;;;3.35;1.42;;;20.00;59.40;;;;;;5052085;28;20176;-74
2022/05/27 07:29:50;;;;;;;4.05;1.70;;;20.00;59.30;;;;;;5051636;28;20618;-74
2022/05/27 07:32:15;;;;;;;3.05;1.58;;;20.10;59.40;;;;;;5051264;28;20574;-74
2022/05/27 07:34:43;;;;;;;3.72;1.58;;;20.00;59.30;;;;;;5051776;28;20642;-71
2022/05/27 07:37:09;;;;;;;3.30;1.50;;;20.10;59.40;;;;;;5051893;28;20362;-72
2022/05/27 07:39:34;;;;;;;2.40;1.30;;;20.10;59.30;;;;;;5051330;28;20638;-69
2022/05/27 07:42:01;;;;;;;3.88;1.40;;;20.10;59.30;;;;;;5052276;28;20217;-73
2022/05/27 07:44:26;;;;;;;2.13;1.55;;;20.10;59.40;;;;;;5051741;28;20194;-75
2022/05/27 07:46:52;;;;;;;3.47;1.40;;;20.10;59.30;;;;;;5050952;28;20183;-74
2022/05/27 07:49:17;;;;;;;2.63;1.50;;;20.10;59.30;;;;;;5051966;28;20213;-74
2022/05/27 07:51:43;;;;;;;3.38;1.55;;;20.10;59.30;;;;;;5051523;28;20175;-75
2022/05/27 07:54:11;;;;;;;3.78;1.58;;;20.10;59.40;;;;;;5051530;28;20173;-74
2022/05/27 07:56:37;;;;;;;3.42;2.08;;;20.10;59.50;;;;;;5051614;28;20195;-75
2022/05/27 07:59:02;;;;;;;3.05;1.42;;;20.00;59.40;;;;;;5051160;28;20210;-74
2022/05/27 08:01:28;;;;;;;2.47;1.75;;;20.10;59.40;;;;;;5051570;28;20596;-73
2022/05/27 08:03:53;;;;;;;4.65;1.60;;;20.10;59.30;;;;;;5051367;28;20534;-73
2022/05/27 08:06:19;;;;;;;5.03;1.95;;;20.10;59.10;;;;;;5051320;28;20181;-72
2022/05/27 08:08:46;;;;;;;5.68;2.05;;;20.20;59.10;;;;;;5051646;28;20183;-70
2022/05/27 08:11:12;;;;;;;3.88;1.70;;;20.20;59.10;;;;;;5052136;28;20492;-72
2022/05/27 08:13:39;;;;;;;4.28;1.77;;;20.20;59.10;;;;;;5050798;28;20168;-73
2022/05/27 08:16:05;;;;;;;5.72;1.60;;;20.20;59.10;;;;;;5051547;28;20211;-75
2022/05/27 08:18:30;;;;;;;4.38;1.83;;;20.20;59.00;;;;;;5051432;28;20226;-74
2022/05/27 08:20:56;;;;;;;5.40;2.35;;;20.20;59.10;;;;;;5050410;28;20183;-72
2022/05/27 08:23:21;;;;;;;4.55;2.05;;;20.30;59.10;;;;;;5051303;28;20241;-72
2022/05/27 08:25:47;;;;;;;4.05;1.95;;;20.30;59.00;;;;;;5051155;28;20171;-71
2022/05/27 08:28:13;;;;;;;5.13;2.10;;;20.30;58.90;;;;;;5051160;28;20191;-74
2022/05/27 08:30:40;;;;;;;3.28;1.65;;;20.30;58.70;;;;;;5051312;28;20179;-72
2022/05/27 08:33:06;;;;;;;9.48;2.50;;;20.30;58.50;;;;;;5051639;28;20182;-73
2022/05/27 08:38:31;;;;;;;7.57;2.15;;;20.30;58.30;;;;;;5051617;28;20221;-74
2022/05/27 08:41:22;;;;;;;3.72;1.52;;;20.40;58.40;;;;;;5051384;28;20246;-74
2022/05/27 08:44:13;;;;;;;4.10;1.83;;;20.30;58.40;;;;;;5062882;28;20299;-73
2022/05/27 08:47:00;;;;;;;4.10;1.90;;;20.30;58.50;;;;;;5060856;28;20235;-73
2022/05/27 08:49:37;;;;;;;4.82;2.05;;;20.30;58.60;;;;;;5074493;28;20209;-73
2022/05/27 08:52:21;;;;;;;6.03;1.88;;;20.30;58.50;;;;;;5040805;28;20179;-72
2022/05/27 08:54:50;;;;;;;5.05;1.63;;;20.30;58.40;;;;;;5053444;28;20699;-72
2022/05/27 09:00:23;;;;;;;3.22;1.75;;;20.40;58.20;;;;;;5051107;28;20229;-74
2022/05/27 09:02:55;;;;;;;5.70;2.53;;;20.40;58.10;;;;;;5056764;28;20275;-75
2022/05/27 09:05:28;;;;;;;4.43;2.00;;;20.50;58.10;;;;;;5073898;28;20200;-74
2022/05/27 09:08:06;;;;;;;4.35;2.05;;;20.40;58.10;;;;;;5074873;28;20178;-74
2022/05/27 09:10:37;;;;;;;3.72;1.83;;;20.30;58.10;;;;;;5072782;28;20594;-73
2022/05/27 09:13:34;;;;;;;4.05;1.90;;;20.30;58.20;;;;;;5074712;28;20618;-72
2022/05/27 09:16:17;;;;;;;5.68;1.90;;;20.30;58.10;;;;;;5070467;28;20270;-73
2022/05/27 09:18:58;;;;;;;6.20;1.90;;;20.40;57.90;;;;;;5054952;28;20198;-73
2022/05/27 09:21:29;;;;;;;6.47;2.53;;;20.40;57.80;;;;;;5053371;28;20163;-70
2022/05/27 09:24:17;;;;;;;5.82;2.22;;;20.50;57.80;;;;;;5053928;28;20198;-70
2022/05/27 09:27:02;;;;;;;6.90;2.08;;;20.60;57.80;;;;;;5053259;28;20182;-71
2022/05/27 09:30:01;;;;;;;6.18;1.80;;;20.60;57.70;;;;;;5054617;28;20229;-71
2022/05/27 09:32:49;;;;;;;5.72;2.13;;;20.60;57.60;;;;;;5053883;28;20202;-71
2022/05/27 09:35:20;;;;;;;4.10;1.88;;;20.60;57.80;;;;;;5054743;28;20179;-72
2022/05/27 09:37:47;;;;;;;4.68;1.90;;;20.70;57.70;;;;;;5052254;28;20183;-72
2022/05/27 09:40:17;;;;;;;7.15;2.90;;;20.70;57.70;;;;;;5052937;28;20171;-73
2022/05/27 09:43:04;;;;;;;4.25;2.10;;;20.80;57.60;;;;;;5052750;28;20222;-72
2022/05/27 09:45:30;;;;;;;5.35;2.05;;;20.80;57.60;;;;;;5036279;28;20178;-72
2022/05/27 09:47:58;;;;;;;3.72;1.67;;;20.70;57.70;;;;;;5053879;28;20179;-73
2022/05/27 09:50:36;;;;;;;5.30;2.13;;;20.60;57.80;;;;;;5059051;28;20235;-73
2022/05/27 09:53:01;;;;;;;5.75;2.40;;;20.70;57.80;;;;;;5072368;28;20186;-75
2022/05/27 09:55:52;;;;;;;6.32;2.13;;;20.80;57.60;;;;;;5072805;28;20673;-73
2022/05/27 09:58:25;;;;;;;5.20;2.10;;;20.80;57.60;;;;;;5069500;28;20544;-71
2022/05/27 10:00:51;;;;;;;6.93;2.40;;;20.70;57.60;;;;;;5073529;28;20233;-72
2022/05/27 10:03:34;;;;;;;3.65;1.95;;;20.70;57.60;;;;;;5072435;28;20577;-74
2022/05/27 10:06:02;;;;;;;4.65;1.90;;;20.80;57.40;;;;;;5070848;28;20174;-72
2022/05/27 10:08:29;;;;;;;6.85;2.10;;;20.70;57.40;;;;;;5053418;28;20191;-72
2022/05/27 10:11:20;;;;;;;5.05;1.90;;;20.80;57.40;;;;;;5053152;28;20175;-73
2022/05/27 10:13:47;;;;;;;5.18;1.90;;;20.70;57.50;;;;;;5051605;28;20171;-76
2022/05/27 10:16:33;;;;;;;6.63;2.00;;;20.70;57.50;;;;;;5050732;28;20175;-75
2022/05/27 10:19:10;;;;;;;5.40;1.95;;;20.80;57.40;;;;;;5052927;28;20191;-74
2022/05/27 10:21:50;;;;;;;5.32;2.10;;;20.80;57.20;;;;;;5052786;28;20579;-74
2022/05/27 10:24:19;;;;;;;5.97;2.00;;;20.80;57.20;;;;;;5053763;28;20211;-75
2022/05/27 10:26:44;;;;;;;6.43;2.55;;;20.70;57.30;;;;;;5051344;28;20171;-76
2022/05/27 10:29:14;;;;;;;4.65;1.90;;;20.80;57.10;;;;;;5053213;28;20701;-75
2022/05/27 10:31:56;;;;;;;6.70;2.25;;;20.80;57.10;;;;;;5053049;28;20225;-74
2022/05/27 10:34:45;;;;;;;4.47;2.15;;;20.80;56.90;;;;;;5052421;28;20189;-74
2022/05/27 10:37:17;;;;;;;5.63;1.98;;;20.90;56.70;;;;;;5053359;28;20167;-74
2022/05/27 10:39:54;;;;;;;5.38;1.92;;;20.90;56.60;;;;;;5051588;28;20205;-73
2022/05/27 10:42:58;;;;;;;5.03;1.95;;;20.90;56.40;;;;;;5052434;28;20210;-72
2022/05/27 10:45:32;;;;;;;8.50;2.38;;;20.90;56.20;;;;;;5053204;28;20235;-73
2022/05/27 10:48:18;;;;;;;6.63;1.92;;;20.90;56.10;;;;;;5051331;28;20211;-73
2022/05/27 10:51:09;;;;;;;8.85;2.47;;;21.00;56.10;;;;;;5060536;28;20477;-72
2022/05/27 10:53:46;;;;;;;6.65;2.47;;;21.00;56.20;;;;;;5069986;28;20231;-72
2022/05/27 10:56:33;;;;;;;4.80;1.92;;;20.90;56.30;;;;;;5071239;28;20170;-73
2022/05/27 11:02:42;;;;;;;7.13;2.38;;;21.00;56.30;;;;;;5060483;28;20237;-74
2022/05/27 11:05:14;;;;;;;7.32;2.17;;;21.00;56.40;;;;;;5071365;28;20175;-73
2022/05/27 11:07:49;;;;;;;3.30;1.95;;;21.00;56.30;;;;;;5070989;28;20195;-75
2022/05/27 11:10:36;;;;;;;6.35;2.03;;;21.00;56.30;;;;;;5070552;28;20247;-74
2022/05/27 11:16:40;;;;;;;6.20;2.15;;;21.10;56.10;;;;;;5071822;28;20247;-69
2022/05/27 11:19:29;;;;;;;4.40;2.10;;;21.00;56.00;;;;;;5064027;28;20241;-69
2022/05/27 11:22:17;;;;;;;6.07;1.83;;;21.10;55.90;;;;;;5055914;28;20562;-72
2022/05/27 11:25:01;;;;;;;5.78;1.90;;;21.10;55.90;;;;;;5054725;28;20205;-70
2022/05/27 11:27:55;;;;;;;3.53;1.90;;;21.00;55.70;;;;;;5056338;28;20186;-70
2022/05/27 11:30:45;;;;;;;10.00;2.33;;;21.00;55.70;;;;;;5070370;28;20545;-71
2022/05/27 11:33:25;;;;;;;7.45;2.03;;;21.10;55.70;;;;;;5071997;28;20536;-73
2022/05/27 11:36:10;;;;;;;5.03;1.80;;;21.10;55.60;;;;;;5054629;28;20179;-72
2022/05/27 11:38:56;;;;;;;5.43;2.33;;;21.10;55.50;;;;;;5069698;28;20578;-75
2022/05/27 11:42:01;;;;;;;5.38;2.20;;;21.10;55.40;;;;;;5072100;28;20178;-72
2022/05/27 11:44:53;;;;;;;6.50;1.90;;;21.10;55.30;;;;;;5056237;28;20205;-71
2022/05/27 11:47:55;;;;;;;5.03;2.15;;;21.10;55.30;;;;;;5071942;28;20175;-72
2022/05/27 11:50:29;;;;;;;8.00;2.10;;;21.10;55.20;;;;;;5067074;28;20182;-70
2022/05/27 11:53:16;;;;;;;4.40;2.03;;;21.10;55.20;;;;;;5049552;28;20191;-72
2022/05/27 11:56:06;;;;;;;4.53;2.33;;;21.00;55.30;;;;;;5051403;28;20167;-73
2022/05/27 11:58:45;;;;;;;4.65;1.63;;;21.00;55.30;;;;;;5049942;28;20183;-74
2022/05/27 12:01:37;;;;;;;6.38;1.92;;;21.00;55.30;;;;;;5050673;28;20219;-76
2022/05/27 12:04:17;;;;;;;7.93;2.55;;;21.00;55.30;;;;;;5051821;28;20179;-76
2022/05/27 12:06:56;;;;;;;7.97;2.28;;;21.00;55.10;;;;;;5049878;28;20278;-72
2022/05/27 12:09:26;;;;;;;5.32;2.08;;;21.20;55.20;;;;;;5034544;28;20257;-75
2022/05/27 12:12:10;;;;;;;7.25;2.08;;;21.30;55.10;;;;;;5050352;28;20193;-74
2022/05/27 12:14:38;;;;;;;8.20;2.38;;;21.20;55.00;;;;;;5033531;28;20266;-75
2022/05/27 12:17:05;;;;;;;6.63;2.25;;;21.30;54.90;;;;;;5050623;28;20167;-73
2022/05/27 12:19:34;;;;;;;3.78;2.00;;;21.30;55.00;;;;;;5033134;28;20213;-71
2022/05/27 12:22:10;;;;;;;9.25;2.38;;;21.30;55.10;;;;;;5050511;28;20619;-70
2022/05/27 12:24:47;;;;;;;5.22;2.00;;;21.40;55.00;;;;;;5050248;28;20201;-71
2022/05/27 12:27:14;;;;;;;5.32;1.73;;;21.40;54.90;;;;;;5049743;28;20653;-72
2022/05/27 12:29:39;;;;;;;5.18;1.80;;;21.50;54.80;;;;;;5050356;28;20183;-73
2022/05/27 12:32:08;;;;;;;6.53;2.35;;;21.50;54.80;;;;;;5033946;28;20182;-72
2022/05/27 12:34:34;;;;;;;4.20;1.90;;;21.50;54.80;;;;;;5033142;28;20241;-74
2022/05/27 12:37:02;;;;;;;5.13;2.00;;;21.60;54.80;;;;;;5051697;28;20269;-75
2022/05/27 12:39:29;;;;;;;4.38;1.52;;;21.60;54.70;;;;;;5033577;28;20270;-74
2022/05/27 12:42:07;;;;;;;4.15;1.85;;;21.70;54.70;;;;;;5033038;28;20250;-72
2022/05/27 12:44:32;;;;;;;5.85;1.63;;;21.70;54.60;;;;;;5051336;28;20175;-71
2022/05/27 12:47:01;;;;;;;3.83;1.98;;;21.70;54.50;;;;;;5050852;28;20648;-70
2022/05/27 12:49:27;;;;;;;5.18;1.92;;;21.60;54.50;;;;;;5049420;28;20191;-75
2022/05/27 12:51:53;;;;;;;4.20;1.83;;;21.70;54.50;;;;;;5068366;28;20175;-75
2022/05/27 12:54:54;;;;;;;4.18;1.65;;;21.70;54.40;;;;;;5070795;28;20575;-75
2022/05/27 13:00:55;;;;;;;4.93;2.35;;;21.80;54.40;;;;;;5071049;28;20241;-72
2022/05/27 13:03:33;;;;;;;4.00;1.83;;;21.80;54.50;;;;;;5070146;28;20695;-73
2022/05/27 13:06:11;;;;;;;5.45;2.22;;;21.80;54.50;;;;;;5070503;28;20167;-74
2022/05/27 13:08:42;;;;;;;3.05;1.60;;;21.80;54.60;;;;;;5070040;28;20277;-75
2022/05/27 13:11:14;;;;;;;6.00;1.85;;;21.90;54.50;;;;;;5071256;28;20266;-74
2022/05/27 13:13:39;;;;;;;5.97;2.35;;;21.90;54.50;;;;;;5069625;28;20179;-73
2022/05/27 13:16:25;;;;;;;5.55;1.85;;;21.80;54.50;;;;;;5052064;28;20179;-73
2022/05/27 13:18:58;;;;;;;4.05;1.70;;;21.90;54.60;;;;;;5070844;28;20174;-73
2022/05/27 13:21:27;;;;;;;5.32;2.63;;;21.90;54.50;;;;;;5069979;28;20182;-73
2022/05/27 13:24:00;;;;;;;5.25;1.63;;;22.00;54.40;;;;;;5069628;28;20236;-72
2022/05/27 13:26:33;;;;;;;4.22;2.00;;;22.00;54.00;;;;;;5069718;28;20558;-73
2022/05/27 13:28:59;;;;;;;6.43;1.92;;;22.00;53.70;;;;;;5073697;28;20316;-74
2022/05/27 13:31:38;;;;;;;5.97;2.00;;;21.90;53.60;;;;;;5073873;28;20647;-76
2022/05/27 13:34:06;;;;;;;6.82;2.03;;;21.90;53.40;;;;;;5073380;28;20188;-75
2022/05/27 13:36:40;;;;;;;7.97;2.35;;;21.80;53.40;;;;;;5055940;28;20251;-75
2022/05/27 13:39:08;;;;;;;4.40;1.92;;;21.70;53.50;;;;;;5073438;28;20186;-75
2022/05/27 13:41:39;;;;;;;5.20;1.95;;;21.70;53.30;;;;;;5073372;28;20193;-74
2022/05/27 13:44:04;;;;;;;6.35;1.92;;;21.80;53.30;;;;;;5072219;28;20225;-74